Time;durP1;ratioP1;P1;durP2;ratioP2;P2;SDS_P1;SDS_P2;PMS_P1;PMS_P2;Temp;Humidity;BMP_temperature;BMP_pressure;BME280_temperature;BME280_humidity;BME280_pressure;Samples;Min_cycle;Max_cycle;Signal;HPM_P1;HPM_P2
2022/10/02 00:00:30;;;;;;;20.03;5.00;;;13.70;99.90;;;;;;5057475;28;20197;-72
2022/10/02 00:03:22;;;;;;;26.80;5.10;;;13.70;99.90;;;;;;5043913;28;20217;-73
2022/10/02 00:05:56;;;;;;;18.57;4.03;;;13.80;99.90;;;;;;5060724;28;20902;-74
2022/10/02 00:08:30;;;;;;;21.80;4.47;;;13.70;99.90;;;;;;5042640;28;20212;-73
2022/10/02 00:11:06;;;;;;;23.57;4.83;;;13.70;99.90;;;;;;5061341;28;20269;-73
2022/10/02 00:13:55;;;;;;;21.13;4.80;;;13.70;99.90;;;;;;5063000;28;20203;-72
2022/10/02 00:16:28;;;;;;;21.50;5.20;;;13.60;99.90;;;;;;5042521;28;20676;-71
2022/10/02 00:18:55;;;;;;;19.63;4.97;;;13.60;99.90;;;;;;5064363;28;20209;-72
2022/10/02 00:21:45;;;;;;;19.33;5.30;;;13.50;99.90;;;;;;5065882;28;20340;-73
2022/10/02 00:24:16;;;;;;;21.77;6.03;;;13.50;99.90;;;;;;5059649;28;20286;-72
2022/10/02 00:26:54;;;;;;;20.07;5.20;;;13.40;99.90;;;;;;5066637;28;20290;-72
2022/10/02 00:29:23;;;;;;;22.87;5.97;;;13.30;99.90;;;;;;5062765;28;20611;-73
2022/10/02 00:32:16;;;;;;;21.40;5.10;;;13.20;99.90;;;;;;5062754;28;20835;-72
2022/10/02 00:35:27;;;;;;;31.37;5.37;;;13.20;99.90;;;;;;5062686;28;20212;-73
2022/10/02 00:38:12;;;;;;;28.83;6.23;;;13.20;99.90;;;;;;5062351;28;20788;-72
2022/10/02 00:41:00;;;;;;;20.87;6.03;;;13.20;99.90;;;;;;5042994;28;20299;-72
2022/10/02 00:43:39;;;;;;;22.43;5.73;;;13.20;99.90;;;;;;5058617;28;20723;-72
2022/10/02 00:46:17;;;;;;;15.33;3.63;;;13.30;99.90;;;;;;5059529;28;20227;-73
2022/10/02 00:48:43;;;;;;;9.87;3.07;;;13.20;99.90;;;;;;5042750;28;20612;-72
2022/10/02 00:51:25;;;;;;;7.47;3.00;;;13.20;99.90;;;;;;5044751;28;20282;-72
2022/10/02 00:54:00;;;;;;;11.83;3.20;;;13.20;99.90;;;;;;5060615;28;20303;-72
2022/10/02 00:56:55;;;;;;;9.87;2.70;;;13.20;99.90;;;;;;5039010;28;20213;-72
2022/10/02 00:59:28;;;;;;;11.27;2.53;;;13.30;99.90;;;;;;5060813;28;20204;-72
2022/10/02 01:02:01;;;;;;;12.93;2.57;;;13.30;99.90;;;;;;5059990;28;20225;-72
2022/10/02 01:04:34;;;;;;;13.70;2.70;;;13.20;99.90;;;;;;5053424;28;20224;-73
2022/10/02 01:07:04;;;;;;;13.40;3.10;;;13.30;99.90;;;;;;5062457;28;20221;-73
2022/10/02 01:09:32;;;;;;;15.57;3.57;;;13.30;99.90;;;;;;5062152;28;20278;-72
2022/10/02 01:12:02;;;;;;;12.30;3.90;;;13.30;99.90;;;;;;5059727;28;20619;-72
2022/10/02 01:14:38;;;;;;;9.63;3.20;;;13.30;99.90;;;;;;5046825;28;20274;-72
2022/10/02 01:17:18;;;;;;;13.27;3.70;;;13.40;99.90;;;;;;5061734;28;20231;-72
2022/10/02 01:19:45;;;;;;;13.60;3.43;;;13.30;99.90;;;;;;5064222;28;20556;-72
2022/10/02 01:22:24;;;;;;;13.57;3.53;;;13.30;99.90;;;;;;5061766;28;20215;-72
2022/10/02 01:24:56;;;;;;;10.60;2.67;;;13.30;99.90;;;;;;5043632;28;20292;-73
2022/10/02 01:27:25;;;;;;;12.47;3.00;;;13.30;99.90;;;;;;5057154;28;20208;-73
2022/10/02 01:30:14;;;;;;;8.83;2.80;;;13.20;99.90;;;;;;5046051;28;20316;-72
2022/10/02 01:32:51;;;;;;;9.97;2.83;;;13.20;99.90;;;;;;5043057;28;20338;-73
2022/10/02 01:35:25;;;;;;;11.90;4.00;;;13.10;99.90;;;;;;5064943;28;20296;-72
2022/10/02 01:37:53;;;;;;;11.63;3.10;;;13.10;99.90;;;;;;5056335;28;20228;-73
2022/10/02 01:40:27;;;;;;;13.43;3.17;;;13.00;99.90;;;;;;5060735;28;20215;-73
2022/10/02 01:42:59;;;;;;;12.80;3.20;;;13.00;99.90;;;;;;5042510;28;20287;-73
2022/10/02 01:45:46;;;;;;;10.17;2.83;;;12.90;99.90;;;;;;5041470;28;20216;-72
2022/10/02 01:48:20;;;;;;;10.70;3.37;;;12.80;99.90;;;;;;5059147;28;20228;-72
2022/10/02 01:51:23;;;;;;;11.20;3.47;;;12.80;99.90;;;;;;5060082;28;20362;-74
2022/10/02 01:54:00;;;;;;;16.50;3.97;;;12.80;99.90;;;;;;5059780;28;20208;-74
2022/10/02 01:56:46;;;;;;;14.07;3.53;;;12.80;99.90;;;;;;5061079;28;20838;-73
2022/10/02 01:59:28;;;;;;;8.83;3.43;;;12.80;99.90;;;;;;5062607;28;20204;-74
2022/10/02 02:02:16;;;;;;;16.77;4.13;;;12.70;99.90;;;;;;5059294;28;20712;-72
2022/10/02 02:04:53;;;;;;;16.53;3.97;;;12.70;99.90;;;;;;5058035;28;20219;-72
2022/10/02 02:07:51;;;;;;;13.07;4.63;;;12.70;99.90;;;;;;5062120;28;20204;-72
2022/10/02 02:10:44;;;;;;;20.27;4.23;;;12.70;99.90;;;;;;5059020;28;20722;-72
2022/10/02 02:13:17;;;;;;;14.33;4.40;;;12.60;99.90;;;;;;5059527;28;20601;-74
2022/10/02 02:15:53;;;;;;;12.63;4.20;;;12.60;99.90;;;;;;5057072;28;20208;-72
2022/10/02 02:18:24;;;;;;;15.47;4.57;;;12.50;99.90;;;;;;5060420;28;20244;-73
2022/10/02 02:20:53;;;;;;;13.83;4.30;;;12.50;99.90;;;;;;5059961;28;20262;-73
2022/10/02 02:23:25;;;;;;;22.50;4.90;;;12.50;99.90;;;;;;5061520;28;20243;-72
2022/10/02 02:25:59;;;;;;;20.33;4.80;;;12.50;99.90;;;;;;5060240;28;20223;-73
2022/10/02 02:28:29;;;;;;;14.30;5.70;;;12.40;99.90;;;;;;5062373;28;20303;-72
2022/10/02 02:30:58;;;;;;;14.50;5.40;;;12.40;99.90;;;;;;5046159;28;20298;-73
2022/10/02 02:33:37;;;;;;;15.47;6.10;;;12.40;99.90;;;;;;5058480;28;20299;-72
2022/10/02 02:36:12;;;;;;;22.40;6.67;;;12.40;99.90;;;;;;5064360;28;20243;-73
2022/10/02 02:38:47;;;;;;;15.27;6.17;;;12.30;99.90;;;;;;5059906;28;20235;-74
2022/10/02 02:41:27;;;;;;;27.23;7.73;;;12.30;99.90;;;;;;5038681;28;20291;-73
2022/10/02 02:44:14;;;;;;;13.20;6.73;;;12.40;99.90;;;;;;5057820;28;20208;-72
2022/10/02 02:47:11;;;;;;;20.03;7.20;;;12.30;99.90;;;;;;5062612;28;20246;-72
2022/10/02 02:49:43;;;;;;;24.73;8.50;;;12.30;99.90;;;;;;5040795;28;20205;-73
2022/10/02 02:52:15;;;;;;;27.07;8.93;;;12.20;99.90;;;;;;5053694;28;20599;-73
2022/10/02 02:54:52;;;;;;;27.33;9.50;;;12.20;99.90;;;;;;5062667;28;20208;-74
2022/10/02 02:57:27;;;;;;;31.40;9.07;;;12.30;99.90;;;;;;5027513;28;20708;-73
2022/10/02 02:59:56;;;;;;;29.73;10.27;;;12.20;99.90;;;;;;5063232;28;20214;-73
2022/10/02 03:02:23;;;;;;;23.33;9.40;;;12.20;99.90;;;;;;5062080;28;20275;-73
2022/10/02 03:04:50;;;;;;;25.97;10.33;;;12.20;99.90;;;;;;5065296;28;20204;-73
2022/10/02 03:07:17;;;;;;;26.80;9.97;;;12.20;99.90;;;;;;5064650;28;20626;-74
2022/10/02 03:10:00;;;;;;;27.97;10.97;;;12.20;99.90;;;;;;5056480;28;20222;-72
2022/10/02 03:12:46;;;;;;;30.20;10.77;;;12.30;99.90;;;;;;5043082;28;20581;-74
2022/10/02 03:15:38;;;;;;;30.50;11.23;;;12.30;99.90;;;;;;5047428;28;20200;-73
2022/10/02 03:18:24;;;;;;;33.23;11.13;;;12.30;99.90;;;;;;5061920;28;20227;-73
2022/10/02 03:21:00;;;;;;;32.77;11.97;;;12.30;99.90;;;;;;5043586;28;20219;-73
2022/10/02 03:23:33;;;;;;;34.80;11.93;;;12.30;99.90;;;;;;5063722;28;20204;-72
2022/10/02 03:26:12;;;;;;;38.50;10.77;;;12.40;99.90;;;;;;5050994;28;20201;-72
2022/10/02 03:28:53;;;;;;;33.97;10.37;;;12.40;99.90;;;;;;5063974;28;20211;-72
2022/10/02 03:31:26;;;;;;;32.60;11.60;;;12.40;99.90;;;;;;5043081;28;20386;-73
2022/10/02 03:33:54;;;;;;;30.47;10.87;;;12.40;99.90;;;;;;5064050;28;20212;-73
2022/10/02 03:36:23;;;;;;;36.07;11.80;;;12.40;99.90;;;;;;5067010;28;20648;-72
2022/10/02 03:38:52;;;;;;;29.73;11.37;;;12.40;99.90;;;;;;5025002;28;20582;-74
2022/10/02 03:41:39;;;;;;;30.40;11.00;;;12.30;99.90;;;;;;5062931;28;20261;-73
2022/10/02 03:44:06;;;;;;;29.17;10.97;;;12.40;99.90;;;;;;5061218;28;20204;-73
2022/10/02 03:46:33;;;;;;;34.23;11.17;;;12.40;99.90;;;;;;5046171;28;20279;-72
2022/10/02 03:49:00;;;;;;;37.67;12.40;;;12.40;99.90;;;;;;5061252;28;20219;-72
2022/10/02 03:51:27;;;;;;;32.37;12.23;;;12.40;99.90;;;;;;5065114;28;20264;-73
2022/10/02 03:53:57;;;;;;;34.87;12.10;;;12.40;99.90;;;;;;5059547;28;20656;-73
2022/10/02 03:57:01;;;;;;;33.80;11.37;;;12.40;99.90;;;;;;5063488;28;20235;-73
2022/10/02 03:59:56;;;;;;;34.00;11.80;;;12.40;99.90;;;;;;5062080;28;20557;-72
2022/10/02 04:02:49;;;;;;;36.03;11.10;;;12.50;99.90;;;;;;5043077;28;20312;-72
2022/10/02 04:05:39;;;;;;;33.63;12.13;;;12.40;99.90;;;;;;5058620;28;20209;-73
2022/10/02 04:08:24;;;;;;;41.40;11.53;;;12.40;99.90;;;;;;5063001;28;20220;-73
2022/10/02 04:11:13;;;;;;;34.87;11.43;;;12.50;99.90;;;;;;5063241;28;20242;-72
2022/10/02 04:13:48;;;;;;;28.20;11.13;;;12.40;99.90;;;;;;5062452;28;20197;-73
2022/10/02 04:16:20;;;;;;;48.83;13.00;;;12.40;99.90;;;;;;5058427;28;20274;-73
2022/10/02 04:19:26;;;;;;;45.20;12.07;;;12.40;99.90;;;;;;5055752;28;20689;-73
2022/10/02 04:22:18;;;;;;;36.13;11.97;;;12.40;99.90;;;;;;5055612;28;20219;-72
2022/10/02 04:24:53;;;;;;;34.17;11.97;;;12.40;99.90;;;;;;5057552;28;20237;-73
2022/10/02 04:27:32;;;;;;;41.43;11.10;;;12.40;99.90;;;;;;5043681;28;20251;-72
2022/10/02 04:30:14;;;;;;;31.77;11.90;;;12.40;99.90;;;;;;5060773;28;20304;-72
2022/10/02 04:32:41;;;;;;;33.47;11.37;;;12.40;99.90;;;;;;5058402;28;20220;-72
2022/10/02 04:35:40;;;;;;;39.97;11.00;;;12.50;99.90;;;;;;5062692;28;20587;-72
2022/10/02 04:38:41;;;;;;;35.57;10.70;;;12.40;99.90;;;;;;5066885;28;20228;-73
2022/10/02 04:41:08;;;;;;;41.90;11.00;;;12.50;99.90;;;;;;5058022;28;20703;-73
2022/10/02 04:43:46;;;;;;;42.87;11.20;;;12.40;99.90;;;;;;5038709;28;20641;-72
2022/10/02 04:46:39;;;;;;;41.53;11.30;;;12.40;99.90;;;;;;5057763;28;20220;-71
2022/10/02 04:49:48;;;;;;;42.33;11.17;;;12.40;99.90;;;;;;5060537;28;20655;-74
2022/10/02 04:52:22;;;;;;;35.53;10.73;;;12.40;99.90;;;;;;5061188;28;20327;-73
2022/10/02 04:55:03;;;;;;;36.63;9.67;;;12.40;99.90;;;;;;5044394;28;20605;-72
2022/10/02 04:57:45;;;;;;;39.83;11.77;;;12.40;99.90;;;;;;5065770;28;20196;-72
2022/10/02 05:00:14;;;;;;;28.97;9.67;;;12.40;99.90;;;;;;5065783;28;20762;-72
2022/10/02 05:03:18;;;;;;;30.07;9.67;;;12.40;99.90;;;;;;5063895;28;20267;-73
2022/10/02 05:05:57;;;;;;;36.57;10.50;;;12.40;99.90;;;;;;5060903;28;20287;-71
2022/10/02 05:08:36;;;;;;;35.20;9.93;;;12.40;99.90;;;;;;5060540;28;20331;-73
2022/10/02 05:11:27;;;;;;;39.60;9.77;;;12.40;99.90;;;;;;5057541;28;20224;-71
2022/10/02 05:14:19;;;;;;;34.77;9.67;;;12.40;99.90;;;;;;5062374;28;20628;-73
2022/10/02 05:17:14;;;;;;;33.13;10.80;;;12.40;99.90;;;;;;5057874;28;20224;-72
2022/10/02 05:19:50;;;;;;;33.20;10.50;;;12.40;99.90;;;;;;5060047;28;20213;-72
2022/10/02 05:22:44;;;;;;;40.83;11.30;;;12.40;99.90;;;;;;5041670;28;20718;-73
2022/10/02 05:25:20;;;;;;;38.97;11.03;;;12.40;99.90;;;;;;5056823;28;20232;-73
2022/10/02 05:28:13;;;;;;;35.73;10.27;;;12.40;99.90;;;;;;5061914;28;20201;-73
2022/10/02 05:31:04;;;;;;;42.13;11.47;;;12.50;99.90;;;;;;5060487;28;20316;-73
2022/10/02 05:33:40;;;;;;;36.40;10.93;;;12.50;99.90;;;;;;5046807;28;20636;-73
2022/10/02 05:36:39;;;;;;;45.67;11.07;;;12.50;99.90;;;;;;5063891;28;20241;-71
2022/10/02 05:39:24;;;;;;;39.07;9.77;;;12.50;99.90;;;;;;5041815;28;20266;-72
2022/10/02 05:41:51;;;;;;;36.57;11.03;;;12.50;99.90;;;;;;5042519;28;20201;-72
2022/10/02 05:44:22;;;;;;;40.67;10.83;;;12.60;99.90;;;;;;5064232;28;20676;-74
2022/10/02 05:47:13;;;;;;;44.77;11.20;;;12.60;99.90;;;;;;5063148;28;20235;-72
2022/10/02 05:50:04;;;;;;;48.67;12.13;;;12.70;99.90;;;;;;5059827;28;20285;-71
2022/10/02 05:52:51;;;;;;;38.07;12.33;;;12.70;99.90;;;;;;5042246;28;20630;-73
2022/10/02 05:56:01;;;;;;;37.60;11.27;;;12.80;99.90;;;;;;5058600;28;20268;-72
2022/10/02 05:58:54;;;;;;;39.63;10.20;;;12.80;99.90;;;;;;4977327;28;20242;-74
2022/10/02 06:01:24;;;;;;;44.97;9.77;;;12.90;99.90;;;;;;5063079;28;20208;-73
2022/10/02 06:04:30;;;;;;;30.63;9.37;;;12.90;99.90;;;;;;5042158;28;20710;-72
2022/10/02 06:07:05;;;;;;;36.17;9.10;;;13.00;99.90;;;;;;5047702;28;20303;-72
2022/10/02 06:09:46;;;;;;;32.63;9.03;;;13.00;99.90;;;;;;5042779;28;20266;-73
2022/10/02 06:12:29;;;;;;;37.13;9.70;;;13.10;99.90;;;;;;5045208;28;20310;-74
2022/10/02 06:15:05;;;;;;;37.00;8.73;;;13.10;99.90;;;;;;5063126;28;20201;-72
2022/10/02 06:18:16;;;;;;;30.83;8.13;;;13.10;99.90;;;;;;5041522;28;20216;-72
2022/10/02 06:20:57;;;;;;;31.67;9.20;;;13.20;99.90;;;;;;4962216;28;20741;-73
2022/10/02 06:23:28;;;;;;;24.47;9.10;;;13.20;99.90;;;;;;5059087;28;20235;-72
2022/10/02 06:26:03;;;;;;;31.67;8.83;;;13.20;99.90;;;;;;5046592;28;20763;-72
2022/10/02 06:28:47;;;;;;;26.93;8.17;;;13.30;99.90;;;;;;5047356;28;20340;-73
2022/10/02 06:31:47;;;;;;;33.83;9.57;;;13.30;99.90;;;;;;5066165;28;20225;-72
2022/10/02 06:34:14;;;;;;;27.97;8.80;;;13.30;99.90;;;;;;5045356;28;20293;-72
2022/10/02 06:36:41;;;;;;;29.47;9.23;;;13.20;99.90;;;;;;5062823;28;20322;-73
2022/10/02 06:39:44;;;;;;;26.27;9.03;;;13.20;99.90;;;;;;5064824;28;20204;-72
2022/10/02 06:42:17;;;;;;;29.83;10.40;;;;;;;;;;5030633;28;20208;-72
2022/10/02 06:45:15;;;;;;;29.47;9.03;;;13.20;99.90;;;;;;5064274;28;20299;-73
2022/10/02 06:47:58;;;;;;;30.17;9.20;;;13.40;99.90;;;;;;5060243;28;20648;-72
2022/10/02 06:51:03;;;;;;;32.40;10.20;;;13.30;99.90;;;;;;5064110;28;20258;-74
2022/10/02 06:53:54;;;;;;;39.03;10.60;;;13.30;99.90;;;;;;5064924;28;20210;-72
2022/10/02 06:56:44;;;;;;;30.93;11.70;;;13.40;99.90;;;;;;5062504;28;20736;-72
2022/10/02 06:59:26;;;;;;;34.60;8.97;;;13.40;99.90;;;;;;5064891;28;20308;-73
2022/10/02 07:02:02;;;;;;;30.80;8.83;;;13.50;99.90;;;;;;5065181;28;20696;-73
2022/10/02 07:04:56;;;;;;;33.57;10.13;;;13.60;99.90;;;;;;5064384;28;20503;-72
2022/10/02 07:07:48;;;;;;;31.33;9.80;;;13.80;99.90;;;;;;5061693;28;20331;-72
2022/10/02 07:10:41;;;;;;;27.27;8.90;;;13.80;99.90;;;;;;5062813;28;20244;-72
2022/10/02 07:13:21;;;;;;;30.63;7.90;;;13.90;99.90;;;;;;5063201;28;20738;-73
2022/10/02 07:15:53;;;;;;;26.40;9.17;;;13.90;99.90;;;;;;5061977;28;20757;-72
2022/10/02 07:18:29;;;;;;;26.03;7.73;;;14.00;99.90;;;;;;5065497;28;20291;-72
2022/10/02 07:21:09;;;;;;;28.87;8.10;;;14.00;99.90;;;;;;5047384;28;20203;-72
2022/10/02 07:23:59;;;;;;;24.90;6.10;;;14.10;99.90;;;;;;5061936;28;20233;-72
2022/10/02 07:26:53;;;;;;;19.43;6.00;;;14.10;99.90;;;;;;5065933;28;20292;-72
2022/10/02 07:29:40;;;;;;;20.13;5.57;;;14.10;99.90;;;;;;5064610;28;20201;-71
2022/10/02 07:32:32;;;;;;;18.00;6.13;;;14.20;99.90;;;;;;5063051;28;20320;-72
2022/10/02 07:35:35;;;;;;;18.40;6.80;;;14.30;99.90;;;;;;5041771;28;20209;-73
2022/10/02 07:38:44;;;;;;;15.53;5.20;;;14.30;99.90;;;;;;5064313;28;20316;-72
2022/10/02 07:41:20;;;;;;;22.33;5.57;;;14.40;99.90;;;;;;5062997;28;20212;-72
2022/10/02 07:44:12;;;;;;;18.47;5.73;;;14.40;99.90;;;;;;5062869;28;20648;-72
2022/10/02 07:46:57;;;;;;;25.43;5.97;;;14.50;99.90;;;;;;5043839;28;20212;-72
2022/10/02 07:49:37;;;;;;;22.23;6.33;;;14.50;99.90;;;;;;5061302;28;20204;-72
2022/10/02 07:52:30;;;;;;;18.10;5.37;;;14.50;99.90;;;;;;5060887;28;20226;-72
2022/10/02 07:55:18;;;;;;;24.63;5.60;;;14.50;99.90;;;;;;5062857;28;20203;-71
2022/10/02 07:58:04;;;;;;;22.97;5.97;;;14.50;99.90;;;;;;5050974;28;20193;-72
2022/10/02 08:00:38;;;;;;;23.57;5.63;;;14.70;99.90;;;;;;5063519;28;20210;-72
2022/10/02 08:03:14;;;;;;;18.20;4.80;;;14.70;99.90;;;;;;5065422;28;20691;-72
2022/10/02 08:05:51;;;;;;;19.60;5.47;;;14.90;99.90;;;;;;5048912;28;20203;-73
2022/10/02 08:08:39;;;;;;;14.20;4.10;;;15.00;99.90;;;;;;5044715;28;20230;-72
2022/10/02 08:11:42;;;;;;;14.73;6.17;;;15.10;99.90;;;;;;5044785;28;20781;-72
2022/10/02 08:14:24;;;;;;;15.63;4.80;;;15.20;99.90;;;;;;5044746;28;20192;-73
2022/10/02 08:16:53;;;;;;;21.97;5.13;;;15.30;99.90;;;;;;5063140;28;20212;-71
2022/10/02 08:19:31;;;;;;;12.55;3.75;;;15.40;99.90;;;;;;5068590;28;20704;-73
2022/10/02 08:22:04;;;;;;;20.30;4.17;;;15.40;99.90;;;;;;5065010;28;20197;-73
2022/10/02 08:25:12;;;;;;;16.90;4.13;;;15.50;99.90;;;;;;5044333;28;20295;-72
2022/10/02 08:28:04;;;;;;;15.60;3.97;;;15.50;99.90;;;;;;5043245;28;20246;-73
2022/10/02 08:30:31;;;;;;;14.17;3.53;;;;;;;;;;5062793;28;20201;-71
2022/10/02 08:32:58;;;;;;;16.02;3.53;;;15.70;99.90;;;;;;5066403;28;20719;-74
2022/10/02 08:35:42;;;;;;;19.65;3.70;;;15.80;99.90;;;;;;5042801;28;20227;-73
2022/10/02 08:38:33;;;;;;;14.13;3.53;;;15.90;99.90;;;;;;5040065;28;20326;-72
2022/10/02 08:41:20;;;;;;;14.70;3.78;;;16.00;99.90;;;;;;5042445;28;20216;-73
2022/10/02 08:44:25;;;;;;;12.43;4.70;;;16.10;99.90;;;;;;5036222;28;20325;-72
2022/10/02 08:47:23;;;;;;;13.50;3.53;;;16.20;99.90;;;;;;5037967;28;20270;-72
2022/10/02 08:50:17;;;;;;;15.70;3.35;;;16.50;99.90;;;;;;5043680;28;20343;-72
2022/10/02 08:53:02;;;;;;;11.70;2.90;;;16.70;99.90;;;;;;5039658;28;20323;-72
2022/10/02 08:56:02;;;;;;;17.45;4.45;;;17.10;99.90;;;;;;5039009;28;20193;-71
2022/10/02 08:58:50;;;;;;;15.48;3.28;;;17.60;99.90;;;;;;5041987;28;20658;-74
2022/10/02 09:01:46;;;;;;;12.40;3.08;;;18.20;99.90;;;;;;5039962;28;20222;-73
2022/10/02 09:04:30;;;;;;;15.00;3.28;;;17.90;99.90;;;;;;5037713;28;20206;-73
2022/10/02 09:07:38;;;;;;;14.13;2.78;;;17.90;99.90;;;;;;5041668;28;20213;-72
2022/10/02 09:10:44;;;;;;;10.82;2.60;;;17.80;99.90;;;;;;5040264;28;20224;-72
2022/10/02 09:13:49;;;;;;;14.50;2.63;;;17.80;99.90;;;;;;5039647;28;20702;-73
2022/10/02 09:16:54;;;;;;;12.60;2.95;;;17.70;99.90;;;;;;5040764;28;20299;-72
2022/10/02 09:19:55;;;;;;;9.30;2.67;;;17.90;99.90;;;;;;5038969;28;20216;-73
2022/10/02 09:22:55;;;;;;;13.40;2.90;;;18.10;99.90;;;;;;5040328;28;20309;-73
2022/10/02 09:25:52;;;;;;;13.68;2.70;;;18.10;99.90;;;;;;5038715;28;20700;-72
2022/10/02 09:28:50;;;;;;;10.85;2.63;;;18.10;99.90;;;;;;5041553;28;20646;-72
2022/10/02 09:31:57;;;;;;;16.30;2.70;;;18.00;99.90;;;;;;5053534;28;20221;-74
2022/10/02 09:34:51;;;;;;;14.15;3.38;;;18.10;99.90;;;;;;5040759;28;20196;-73
2022/10/02 09:38:04;;;;;;;10.95;2.72;;;18.10;99.90;;;;;;5049020;28;20271;-72
2022/10/02 09:40:59;;;;;;;15.27;2.70;;;18.20;99.90;;;;;;5040286;28;20209;-73
2022/10/02 09:44:05;;;;;;;11.88;2.80;;;18.20;99.90;;;;;;5061059;28;20208;-72
2022/10/02 09:47:02;;;;;;;17.73;3.10;;;18.20;99.90;;;;;;5061565;28;20216;-72
2022/10/02 09:49:41;;;;;;;15.50;3.25;;;18.30;99.90;;;;;;5059244;28;20272;-72
2022/10/02 09:52:10;;;;;;;17.52;3.00;;;18.00;99.90;;;;;;5057909;28;20354;-72
2022/10/02 09:54:55;;;;;;;9.68;2.42;;;18.00;99.90;;;;;;5063869;28;20193;-73
2022/10/02 09:57:58;;;;;;;13.20;2.60;;;17.90;99.90;;;;;;5040409;28;20207;-72
2022/10/02 10:00:50;;;;;;;13.85;3.15;;;17.90;99.90;;;;;;5057927;28;20203;-73
2022/10/02 10:03:53;;;;;;;13.85;2.50;;;17.80;99.90;;;;;;5041683;28;20200;-72
2022/10/02 10:06:42;;;;;;;12.63;2.33;;;17.70;99.90;;;;;;5059558;28;20208;-73
2022/10/02 10:09:37;;;;;;;8.95;2.40;;;17.80;99.90;;;;;;5058737;28;20224;-72
2022/10/02 10:12:29;;;;;;;11.82;2.90;;;17.90;99.90;;;;;;5055641;28;20312;-73
2022/10/02 10:15:29;;;;;;;15.93;3.00;;;17.90;99.90;;;;;;5040034;28;20633;-72
2022/10/02 10:18:35;;;;;;;10.30;2.58;;;17.90;99.90;;;;;;5061077;28;20216;-72
2022/10/02 10:21:23;;;;;;;11.85;2.70;;;17.80;99.90;;;;;;5065077;28;20299;-73
2022/10/02 10:24:24;;;;;;;11.77;2.90;;;17.80;99.90;;;;;;5058822;28;20254;-73
2022/10/02 10:27:42;;;;;;;11.65;2.75;;;17.90;99.90;;;;;;5056563;28;20295;-72
2022/10/02 10:30:08;;;;;;;9.73;2.38;;;18.10;99.90;;;;;;5025623;28;20658;-71
2022/10/02 10:33:08;;;;;;;12.13;2.45;;;18.10;99.90;;;;;;5057707;28;20243;-72
2022/10/02 10:35:44;;;;;;;11.23;2.80;;;18.10;99.90;;;;;;5061637;28;20209;-72
2022/10/02 10:38:32;;;;;;;13.75;3.08;;;18.10;99.90;;;;;;5061912;28;20654;-73
2022/10/02 10:41:08;;;;;;;10.63;2.20;;;18.10;99.90;;;;;;5060713;28;20295;-72
2022/10/02 10:44:05;;;;;;;9.90;2.40;;;18.30;99.90;;;;;;5060736;28;20214;-72
2022/10/02 10:46:47;;;;;;;10.40;2.80;;;18.30;99.90;;;;;;5046645;28;20229;-72
2022/10/02 10:49:45;;;;;;;9.00;2.75;;;18.40;99.90;;;;;;5056938;28;20295;-74
2022/10/02 10:52:30;;;;;;;11.68;2.70;;;18.40;99.90;;;;;;5046867;28;20282;-73
2022/10/02 10:55:24;;;;;;;9.43;2.03;;;18.50;99.90;;;;;;5064572;28;20203;-74
2022/10/02 10:58:13;;;;;;;8.55;2.20;;;18.60;99.90;;;;;;5062194;28;20228;-74
2022/10/02 11:00:51;;;;;;;11.40;2.58;;;18.60;99.90;;;;;;5059234;28;20205;-74
2022/10/02 11:04:05;;;;;;;8.82;2.25;;;18.70;99.90;;;;;;5058304;28;20201;-73
2022/10/02 11:07:06;;;;;;;8.05;2.13;;;18.80;99.90;;;;;;5059704;28;20574;-73
2022/10/02 11:10:06;;;;;;;12.35;2.50;;;18.90;99.90;;;;;;5064280;28;20619;-71
2022/10/02 11:12:42;;;;;;;10.70;2.33;;;18.90;99.90;;;;;;5066231;28;20258;-71
2022/10/02 11:15:20;;;;;;;9.70;2.13;;;18.90;99.90;;;;;;5068126;28;20291;-72
2022/10/02 11:18:25;;;;;;;10.55;2.50;;;18.90;99.90;;;;;;5059234;28;20244;-75
2022/10/02 11:21:17;;;;;;;11.25;2.05;;;19.00;99.90;;;;;;5061803;28;20627;-72
2022/10/02 11:24:06;;;;;;;9.15;2.33;;;19.00;99.90;;;;;;5067430;28;20301;-73
2022/10/02 11:27:08;;;;;;;15.10;2.58;;;18.90;99.90;;;;;;5052755;28;20221;-72
2022/10/02 11:30:02;;;;;;;9.15;2.40;;;18.70;99.90;;;;;;5013023;28;20216;-73
2022/10/02 11:32:30;;;;;;;11.63;2.30;;;18.70;99.90;;;;;;5064900;28;20247;-72
2022/10/02 11:35:19;;;;;;;13.65;2.00;;;18.60;99.90;;;;;;5047314;28;20250;-72
2022/10/02 11:38:15;;;;;;;9.93;1.85;;;18.60;99.90;;;;;;5063100;28;20232;-71
2022/10/02 11:41:15;;;;;;;11.05;2.38;;;18.60;99.90;;;;;;5060096;28;20219;-72
2022/10/02 11:43:46;;;;;;;10.57;2.20;;;18.60;99.90;;;;;;5019083;28;20240;-73
2022/10/02 11:46:35;;;;;;;11.00;2.70;;;18.60;99.90;;;;;;5063524;28;20833;-72
2022/10/02 11:49:02;;;;;;;9.65;2.13;;;18.90;99.90;;;;;;5064063;28;20299;-72
2022/10/02 11:51:56;;;;;;;10.45;2.40;;;19.10;99.90;;;;;;5063104;28;20209;-73
2022/10/02 11:54:29;;;;;;;12.57;2.78;;;19.20;99.90;;;;;;5062958;28;20295;-73
2022/10/02 11:57:31;;;;;;;6.78;2.03;;;19.20;99.90;;;;;;5060582;28;20286;-74
2022/10/02 12:00:28;;;;;;;10.60;2.35;;;19.30;99.90;;;;;;5061998;28;20303;-74
2022/10/02 12:03:13;;;;;;;9.00;2.08;;;19.30;99.90;;;;;;5064330;28;20750;-73
2022/10/02 12:06:01;;;;;;;8.60;2.13;;;19.30;99.90;;;;;;5045530;28;20232;-72
2022/10/02 12:08:52;;;;;;;10.30;2.30;;;19.20;99.90;;;;;;5060999;28;20212;-72
2022/10/02 12:11:39;;;;;;;10.43;2.88;;;19.20;99.90;;;;;;5062900;28;20201;-73
2022/10/02 12:14:24;;;;;;;9.27;2.00;;;19.20;99.90;;;;;;5040572;28;20224;-72
2022/10/02 12:17:17;;;;;;;6.70;2.00;;;19.40;99.90;;;;;;5065810;28;20212;-73
2022/10/02 12:29:05;;;;;;;8.35;2.17;;;20.10;99.90;;;;;;5056993;28;20312;-72
2022/10/02 12:31:50;;;;;;;9.77;1.70;;;20.30;99.90;;;;;;5046709;28;20278;-73
2022/10/02 12:34:45;;;;;;;9.60;2.00;;;20.40;99.90;;;;;;5046059;28;20267;-72
2022/10/02 12:37:41;;;;;;;8.90;2.22;;;20.40;99.90;;;;;;5046949;28;20262;-73
2022/10/02 12:40:35;;;;;;;8.55;2.70;;;20.30;99.90;;;;;;5063770;28;20207;-72
2022/10/02 12:43:18;;;;;;;10.48;2.38;;;20.10;99.90;;;;;;5061340;28;20467;-72
2022/10/02 12:46:20;;;;;;;7.20;2.47;;;19.90;99.90;;;;;;5061841;28;20670;-74
2022/10/02 12:48:58;;;;;;;10.95;2.13;;;19.70;99.90;;;;;;5040571;28;20378;-73
2022/10/02 12:52:00;;;;;;;10.50;2.10;;;19.50;99.90;;;;;;5061452;28;20208;-71
2022/10/02 12:55:08;;;;;;;8.77;2.30;;;19.40;99.90;;;;;;4978439;28;20203;-74
2022/10/02 12:57:54;;;;;;;11.52;2.35;;;19.30;99.90;;;;;;5061969;28;20732;-75
2022/10/02 13:00:29;;;;;;;12.95;2.40;;;19.00;99.90;;;;;;5061845;28;20287;-74
2022/10/02 13:03:30;;;;;;;11.30;2.53;;;18.90;99.90;;;;;;5062234;28;20227;-74
2022/10/02 13:06:42;;;;;;;9.60;2.00;;;18.70;99.90;;;;;;5062024;28;20228;-73
2022/10/02 13:09:34;;;;;;;7.97;2.00;;;18.50;99.90;;;;;;5065830;28;20212;-72
2022/10/02 13:12:17;;;;;;;11.20;2.10;;;18.50;99.90;;;;;;5044964;28;20704;-74
2022/10/02 13:15:05;;;;;;;6.95;2.00;;;18.40;99.90;;;;;;5060158;28;20327;-73
2022/10/02 13:17:46;;;;;;;14.20;2.63;;;18.30;99.90;;;;;;5059740;28;20286;-79
2022/10/02 13:23:45;;;;;;;9.25;2.35;;;18.50;99.90;;;;;;5059367;22;20262;-73
2022/10/02 13:26:41;;;;;;;9.30;2.72;;;18.60;99.90;;;;;;5030801;28;20617;-73
2022/10/02 13:29:45;;;;;;;7.82;1.88;;;18.70;99.90;;;;;;5037726;28;20248;-73
2022/10/02 13:32:30;;;;;;;10.63;2.03;;;18.90;99.90;;;;;;5038932;28;20240;-75
2022/10/02 13:35:15;;;;;;;7.95;1.92;;;18.90;99.90;;;;;;5043785;28;20212;-75
2022/10/02 13:38:23;;;;;;;10.27;2.28;;;18.90;99.90;;;;;;5042558;28;20731;-76
2022/10/02 13:41:05;;;;;;;7.75;2.60;;;19.00;99.90;;;;;;5036465;28;20202;-73
2022/10/02 13:44:10;;;;;;;5.88;2.10;;;19.20;99.90;;;;;;5040130;28;20563;-74
2022/10/02 13:46:43;;;;;;;8.38;2.20;;;19.20;99.90;;;;;;5032674;28;20228;-73
2022/10/02 13:49:40;;;;;;;8.13;1.70;;;19.20;99.90;;;;;;5043906;28;20275;-73
2022/10/02 13:52:36;;;;;;;7.28;1.80;;;19.20;99.90;;;;;;5043617;28;20206;-73
2022/10/02 13:55:22;;;;;;;6.90;1.88;;;19.20;99.90;;;;;;5019793;28;20210;-73
2022/10/02 13:58:08;;;;;;;9.32;1.83;;;19.00;99.90;;;;;;5019754;28;20274;-73
2022/10/02 14:00:37;;;;;;;9.70;1.85;;;18.90;99.90;;;;;;5029506;28;20225;-74
2022/10/02 14:03:19;;;;;;;7.28;2.17;;;18.80;99.90;;;;;;5038195;28;20238;-74
2022/10/02 14:06:13;;;;;;;8.60;2.10;;;18.70;99.90;;;;;;5037907;28;20555;-75
2022/10/02 14:08:40;;;;;;;5.95;1.77;;;18.60;99.90;;;;;;5024755;28;20219;-73
2022/10/02 14:11:35;;;;;;;7.47;1.95;;;18.50;99.90;;;;;;5037378;28;20660;-73
2022/10/02 14:14:13;;;;;;;5.95;1.85;;;18.50;99.90;;;;;;5031062;28;20243;-74
2022/10/02 14:16:58;;;;;;;8.60;1.80;;;18.60;99.90;;;;;;5040343;28;20209;-74
2022/10/02 14:19:51;;;;;;;9.50;2.10;;;18.60;99.90;;;;;;5038078;28;20327;-72
2022/10/02 14:22:36;;;;;;;9.48;2.22;;;18.50;99.90;;;;;;5034919;28;20328;-73